createdAt,value
2022-08-03T00:01:49.724Z,20.88
2022-08-03T00:04:19.696Z,20.87
2022-08-03T00:06:51.989Z,20.85
2022-08-03T00:09:21.719Z,20.85
2022-08-03T00:11:51.422Z,20.81
2022-08-03T00:14:21.162Z,20.83
2022-08-03T00:16:50.885Z,20.82
2022-08-03T00:19:20.586Z,20.81
2022-08-03T00:21:52.892Z,20.79
2022-08-03T00:24:23.073Z,20.78
2022-08-03T00:26:52.783Z,20.78
2022-08-03T00:29:22.480Z,20.79
2022-08-03T00:31:59.492Z,20.77
2022-08-03T00:34:35.231Z,20.76
2022-08-03T00:37:21.353Z,20.73
2022-08-03T00:39:54.245Z,20.75
2022-08-03T00:42:29.593Z,20.72
2022-08-03T00:44:59.288Z,20.73
2022-08-03T00:47:28.981Z,20.73
2022-08-03T00:49:58.710Z,20.71
2022-08-03T00:52:31.057Z,20.71
2022-08-03T00:55:00.787Z,20.68
2022-08-03T00:57:32.968Z,20.66
2022-08-03T01:00:02.914Z,20.66
2022-08-03T01:02:32.635Z,20.68
2022-08-03T01:05:02.400Z,20.66
2022-08-03T01:07:45.301Z,20.69
2022-08-03T01:10:27.451Z,20.70
2022-08-03T01:13:02.630Z,20.73
2022-08-03T01:15:40.170Z,20.72
2022-08-03T01:18:18.447Z,20.72
2022-08-03T01:20:53.571Z,20.65
2022-08-03T01:23:44.623Z,20.69
2022-08-03T01:26:41.518Z,20.66
2022-08-03T01:29:27.278Z,20.67
2022-08-03T01:32:53.471Z,20.68
2022-08-03T01:35:00.941Z,20.70
2022-08-03T01:37:39.643Z,20.73
2022-08-03T01:40:12.044Z,20.75
2022-08-03T01:42:44.203Z,20.73
2022-08-03T01:45:18.041Z,20.75
2022-08-03T01:47:52.620Z,20.74
2022-08-03T01:50:25.410Z,20.77
2022-08-03T01:52:57.502Z,20.75
2022-08-03T01:55:29.397Z,20.78
2022-08-03T01:58:05.391Z,20.74
2022-08-03T02:00:50.714Z,20.70
2022-08-03T02:03:26.158Z,20.68
2022-08-03T02:06:55.617Z,20.65
2022-08-03T02:08:50.551Z,20.62
2022-08-03T02:11:20.470Z,20.58
2022-08-03T02:13:52.997Z,20.53
2022-08-03T02:16:24.820Z,20.52
2022-08-03T02:18:58.009Z,20.55
2022-08-03T02:21:56.391Z,20.53
2022-08-03T02:24:19.305Z,20.52
2022-08-03T02:26:49.957Z,20.51
2022-08-03T02:29:38.718Z,20.51
2022-08-03T02:32:10.089Z,20.49
2022-08-03T02:34:45.029Z,20.49
2022-08-03T02:37:15.943Z,20.48
2022-08-03T02:39:47.672Z,20.46
2022-08-03T02:42:21.239Z,20.48
2022-08-03T02:44:54.169Z,20.48
2022-08-03T02:47:25.208Z,20.45
2022-08-03T02:50:00.222Z,20.46
2022-08-03T02:52:32.736Z,20.44
2022-08-03T02:55:05.352Z,20.44
2022-08-03T02:57:38.391Z,20.42
2022-08-03T03:00:10.101Z,20.44
2022-08-03T03:02:40.799Z,20.46
2022-08-03T03:05:55.377Z,20.45
2022-08-03T03:08:17.718Z,20.43
2022-08-03T03:10:55.377Z,20.42
2022-08-03T03:13:26.532Z,20.42
2022-08-03T03:15:59.486Z,20.43
2022-08-03T03:18:31.394Z,20.42
2022-08-03T03:21:04.973Z,20.43
2022-08-03T03:23:37.032Z,20.44
2022-08-03T03:26:07.592Z,20.43
2022-08-03T03:28:39.319Z,20.42
2022-08-03T03:31:10.960Z,20.42
2022-08-03T03:33:41.638Z,20.40
2022-08-03T03:36:14.001Z,20.39
2022-08-03T03:38:43.883Z,20.40
2022-08-03T03:41:13.787Z,20.39
2022-08-03T03:43:43.684Z,20.40
2022-08-03T03:46:15.874Z,20.39
2022-08-03T03:48:45.735Z,20.37
2022-08-03T03:51:18.311Z,20.37
2022-08-03T03:53:59.114Z,20.34
2022-08-03T03:56:29.373Z,20.38
2022-08-03T03:58:59.243Z,20.38
2022-08-03T04:01:28.983Z,20.39
2022-08-03T04:04:18.679Z,20.37
2022-08-03T04:07:03.704Z,20.38
2022-08-03T04:09:47.667Z,20.38
2022-08-03T04:12:19.496Z,20.36
2022-08-03T04:14:50.908Z,20.38
2022-08-03T04:17:22.575Z,20.36
2022-08-03T04:19:55.480Z,20.36
2022-08-03T04:22:31.020Z,20.38
2022-08-03T04:25:05.065Z,20.39
2022-08-03T04:27:37.990Z,20.42
2022-08-03T04:30:09.825Z,20.44
2022-08-03T04:32:45.817Z,20.44
2022-08-03T04:35:15.836Z,20.44
2022-08-03T04:37:52.339Z,20.45
2022-08-03T04:40:25.501Z,20.47
2022-08-03T04:43:01.393Z,20.49
2022-08-03T04:45:33.224Z,20.54
2022-08-03T04:48:03.340Z,20.64
2022-08-03T04:50:33.589Z,20.86
2022-08-03T04:53:05.927Z,21.11
2022-08-03T04:55:38.335Z,21.38
2022-08-03T04:58:08.176Z,21.62
2022-08-03T05:00:38.227Z,21.89
2022-08-03T05:03:20.570Z,22.15
2022-08-03T05:06:01.657Z,22.42
2022-08-03T05:08:46.868Z,22.70
2022-08-03T05:11:18.822Z,22.93
2022-08-03T05:13:48.832Z,23.16
2022-08-03T05:16:18.714Z,23.40
2022-08-03T05:18:48.773Z,23.54
2022-08-03T05:21:18.497Z,23.71
2022-08-03T05:23:50.874Z,23.92
2022-08-03T05:26:20.865Z,24.15
2022-08-03T05:28:51.570Z,24.26
2022-08-03T05:31:21.928Z,24.34
2022-08-03T05:33:51.700Z,24.49
2022-08-03T05:36:21.410Z,24.64
2022-08-03T05:38:53.928Z,24.88
2022-08-03T05:41:36.907Z,25.07
2022-08-03T05:44:08.174Z,25.15
2022-08-03T05:46:38.090Z,25.19
2022-08-03T05:49:07.846Z,25.30
2022-08-03T05:51:37.576Z,25.41
2022-08-03T05:54:09.963Z,25.58
2022-08-03T05:56:41.100Z,25.53
2022-08-03T05:59:35.859Z,25.59
2022-08-03T06:02:00.751Z,25.70
2022-08-03T06:04:30.540Z,25.75
2022-08-03T06:07:00.290Z,25.81
2022-08-03T06:10:36.897Z,25.93
2022-08-03T06:12:25.233Z,25.99
2022-08-03T06:14:54.988Z,26.05
2022-08-03T06:17:24.831Z,26.21
2022-08-03T06:19:56.541Z,26.26
2022-08-03T06:22:26.300Z,26.38
2022-08-03T06:25:04.094Z,26.51
2022-08-03T06:27:37.276Z,26.53
2022-08-03T06:30:09.039Z,26.49
2022-08-03T06:32:40.535Z,26.38
2022-08-03T06:35:12.016Z,26.54
2022-08-03T06:37:47.941Z,26.61
2022-08-03T06:40:28.661Z,26.61
2022-08-03T06:42:58.628Z,26.57
2022-08-03T06:45:31.931Z,26.54
2022-08-03T06:48:06.997Z,26.65
2022-08-03T06:50:38.312Z,26.79
2022-08-03T06:53:09.180Z,27.05
2022-08-03T06:55:54.413Z,27.30
2022-08-03T06:58:25.116Z,27.51
2022-08-03T07:00:54.803Z,27.62
2022-08-03T07:03:24.557Z,27.64
2022-08-03T07:05:54.356Z,27.71
2022-08-03T07:08:34.148Z,27.75
2022-08-03T07:11:08.086Z,27.87
2022-08-03T07:13:37.786Z,28.00
2022-08-03T07:16:08.179Z,28.12
2022-08-03T07:18:41.077Z,28.24
2022-08-03T07:21:12.744Z,28.35
2022-08-03T07:23:42.570Z,28.55
2022-08-03T07:26:14.975Z,28.66
2022-08-03T07:28:44.708Z,28.79
2022-08-03T07:31:14.460Z,28.93
2022-08-03T07:33:44.229Z,28.94
2022-08-03T07:36:13.937Z,28.96
2022-08-03T07:38:43.673Z,29.10
2022-08-03T07:41:15.994Z,29.05
2022-08-03T07:43:45.707Z,29.15
2022-08-03T07:46:18.881Z,29.20
2022-08-03T07:48:48.592Z,29.21
2022-08-03T07:51:18.330Z,29.20
2022-08-03T07:53:48.081Z,29.08
2022-08-03T07:56:21.589Z,29.02
2022-08-03T07:58:51.281Z,28.86
2022-08-03T08:01:21.058Z,29.05
2022-08-03T08:03:52.796Z,29.28
2022-08-03T08:06:23.835Z,29.47
2022-08-03T08:08:53.798Z,29.50
2022-08-03T08:11:26.248Z,29.64
2022-08-03T08:13:55.950Z,29.70
2022-08-03T08:16:25.697Z,29.62
2022-08-03T08:18:55.484Z,29.64
2022-08-03T08:21:25.404Z,29.76
2022-08-03T08:24:19.696Z,29.80
2022-08-03T08:26:52.810Z,29.82
2022-08-03T08:29:23.454Z,29.68
2022-08-03T08:31:53.182Z,29.48
2022-08-03T08:34:22.918Z,29.31
2022-08-03T08:36:52.637Z,29.18
2022-08-03T08:39:22.338Z,28.99
2022-08-03T08:41:56.530Z,28.76
2022-08-03T08:44:26.262Z,28.64
2022-08-03T08:46:58.152Z,28.69
2022-08-03T08:49:30.972Z,28.86
2022-08-03T08:52:02.446Z,29.03
2022-08-03T08:54:33.846Z,29.25
2022-08-03T08:57:21.296Z,29.41
2022-08-03T08:59:59.781Z,29.11
2022-08-03T09:02:33.055Z,29.22
2022-08-03T09:05:07.336Z,29.29
2022-08-03T09:07:37.800Z,29.38
2022-08-03T09:10:13.022Z,29.55
2022-08-03T09:12:47.068Z,29.77
2022-08-03T09:15:22.480Z,29.86
2022-08-03T09:17:53.837Z,29.79
2022-08-03T09:20:25.020Z,29.74
2022-08-03T09:22:57.665Z,29.75
2022-08-03T09:25:32.839Z,29.73
2022-08-03T09:28:13.864Z,29.66
2022-08-03T09:31:03.728Z,29.62
2022-08-03T09:33:35.892Z,29.63
2022-08-03T09:36:06.292Z,29.64
2022-08-03T09:38:36.089Z,29.70
2022-08-03T09:41:06.654Z,29.75
2022-08-03T09:43:51.803Z,29.67
2022-08-03T09:46:21.649Z,29.59
2022-08-03T09:48:51.365Z,29.64
2022-08-03T09:51:32.874Z,29.65
2022-08-03T09:54:29.358Z,29.66
2022-08-03T09:57:00.249Z,29.65
2022-08-03T09:59:34.388Z,29.71
2022-08-03T10:02:04.216Z,29.75
2022-08-03T10:04:33.965Z,29.75
2022-08-03T10:07:09.561Z,29.73
2022-08-03T10:09:39.789Z,29.61
2022-08-03T10:12:14.253Z,29.51
2022-08-03T10:14:46.938Z,29.29
2022-08-03T10:17:17.192Z,29.20
2022-08-03T10:19:47.417Z,29.22
2022-08-03T10:22:19.041Z,29.30
2022-08-03T10:24:55.906Z,29.31
2022-08-03T10:27:26.997Z,29.38
2022-08-03T10:30:03.651Z,29.29
2022-08-03T10:32:36.980Z,29.25
2022-08-03T10:35:19.126Z,29.34
2022-08-03T10:37:57.028Z,29.36
2022-08-03T10:43:25.252Z,29.33
2022-08-03T10:45:59.017Z,29.33
2022-08-03T10:48:29.585Z,29.38
2022-08-03T10:50:59.511Z,29.29
2022-08-03T10:53:40.432Z,29.20
2022-08-03T10:56:49.562Z,29.20
2022-08-03T10:59:27.459Z,29.14
2022-08-03T11:02:01.416Z,29.05
2022-08-03T11:04:32.124Z,29.08
2022-08-03T11:07:24.207Z,29.04
2022-08-03T11:09:55.461Z,29.12
2022-08-03T11:12:28.470Z,29.11
2022-08-03T11:15:03.320Z,29.16
2022-08-03T11:17:46.635Z,29.13
2022-08-03T11:20:50.346Z,28.99
2022-08-03T11:24:03.189Z,29.04
2022-08-03T11:26:16.586Z,29.10
2022-08-03T11:28:47.784Z,29.12
2022-08-03T11:31:59.371Z,29.19
2022-08-03T11:34:31.689Z,29.20
2022-08-03T11:37:30.198Z,29.26
2022-08-03T11:40:03.659Z,29.30
2022-08-03T11:42:52.713Z,29.31
2022-08-03T11:45:22.432Z,29.30
2022-08-03T11:47:58.654Z,29.29
2022-08-03T11:50:39.622Z,29.28
2022-08-03T11:53:10.287Z,29.22
2022-08-03T11:55:43.370Z,29.20
2022-08-03T11:59:17.274Z,29.28
2022-08-03T12:01:12.503Z,29.22
2022-08-03T12:03:42.359Z,29.25
2022-08-03T12:06:16.927Z,29.25
2022-08-03T12:08:48.002Z,29.31
2022-08-03T12:11:18.932Z,29.36
2022-08-03T12:14:08.809Z,29.34
2022-08-03T12:16:41.021Z,29.32
2022-08-03T12:19:10.750Z,29.35
2022-08-03T12:21:56.907Z,29.36
2022-08-03T12:24:29.652Z,29.38
2022-08-03T12:27:00.106Z,29.36
2022-08-03T12:29:30.625Z,29.28
2022-08-03T12:32:00.434Z,29.23
2022-08-03T12:34:50.950Z,29.18
2022-08-03T12:37:25.891Z,29.21
2022-08-03T12:40:01.751Z,29.28
2022-08-03T12:42:35.313Z,29.30
2022-08-03T12:45:24.014Z,29.19
2022-08-03T12:47:58.265Z,29.11
2022-08-03T12:50:31.378Z,29.15
2022-08-03T12:53:07.904Z,29.23
2022-08-03T12:56:04.281Z,29.25
2022-08-03T12:58:35.642Z,29.16
2022-08-03T13:01:10.332Z,29.19
2022-08-03T13:03:45.683Z,29.21
2022-08-03T13:06:21.203Z,29.29
2022-08-03T13:09:04.126Z,29.35
2022-08-03T13:11:53.473Z,29.42
2022-08-03T13:14:23.942Z,29.35
2022-08-03T13:16:54.212Z,29.34
2022-08-03T13:19:23.948Z,29.26
2022-08-03T13:22:04.219Z,29.33
2022-08-03T13:24:37.253Z,29.28
2022-08-03T13:28:01.630Z,29.27
2022-08-03T13:29:57.766Z,29.26
2022-08-03T13:32:27.517Z,29.30
2022-08-03T13:34:57.208Z,29.31
2022-08-03T13:37:27.251Z,29.33
2022-08-03T13:40:02.428Z,29.32
2022-08-03T13:42:34.033Z,29.43
2022-08-03T13:45:04.496Z,29.57
2022-08-03T13:47:34.640Z,29.53
2022-08-03T13:50:04.371Z,29.37
2022-08-03T13:52:35.253Z,29.33
2022-08-03T13:55:09.364Z,29.30
2022-08-03T13:58:04.252Z,29.36
2022-08-03T14:00:29.648Z,29.39
2022-08-03T14:03:09.108Z,29.46
2022-08-03T14:05:42.343Z,29.41
2022-08-03T14:08:12.596Z,29.47
2022-08-03T14:10:47.573Z,29.52
2022-08-03T14:13:18.279Z,29.52
2022-08-03T14:15:50.260Z,29.56
2022-08-03T14:18:28.608Z,29.57
2022-08-03T14:21:06.717Z,29.60
2022-08-03T14:23:38.286Z,29.63
2022-08-03T14:26:12.185Z,29.70
2022-08-03T14:28:41.952Z,29.75
2022-08-03T14:32:10.193Z,29.72
2022-08-03T14:34:01.393Z,29.77
2022-08-03T14:36:31.112Z,29.77
2022-08-03T14:39:01.513Z,29.73
2022-08-03T14:41:34.103Z,29.67
2022-08-03T14:44:03.813Z,29.68
2022-08-03T14:46:34.125Z,29.61
2022-08-03T14:50:31.385Z,29.70
2022-08-03T14:51:55.083Z,29.71
2022-08-03T14:54:25.270Z,29.65
2022-08-03T14:56:57.616Z,29.55
2022-08-03T14:59:28.464Z,29.47
2022-08-03T15:02:23.310Z,29.54
2022-08-03T15:04:53.757Z,29.52
2022-08-03T15:07:23.628Z,29.58
2022-08-03T15:09:53.422Z,29.57
2022-08-03T15:12:25.735Z,29.51
2022-08-03T15:14:55.467Z,29.61
2022-08-03T15:17:25.436Z,29.54
2022-08-03T15:20:05.564Z,29.60
2022-08-03T15:22:44.884Z,29.60
2022-08-03T15:26:28.605Z,29.61
2022-08-03T15:28:07.571Z,29.64
2022-08-03T15:30:38.615Z,29.53
2022-08-03T15:33:08.834Z,29.48
2022-08-03T15:35:38.632Z,29.44
2022-08-03T15:38:09.677Z,29.44
2022-08-03T15:40:40.030Z,29.47
2022-08-03T15:43:12.385Z,29.33
2022-08-03T15:45:43.090Z,29.22
2022-08-03T15:48:12.798Z,29.13
2022-08-03T15:50:43.868Z,29.05
2022-08-03T15:53:13.671Z,28.97
2022-08-03T15:55:43.919Z,28.83
2022-08-03T15:59:10.981Z,28.67
2022-08-03T16:01:07.565Z,28.45
2022-08-03T16:03:38.479Z,28.35
2022-08-03T16:06:10.307Z,28.31
2022-08-03T16:08:39.988Z,28.29
2022-08-03T16:11:09.855Z,28.25
2022-08-03T16:14:13.852Z,28.23
2022-08-03T16:16:31.990Z,28.11
2022-08-03T16:19:05.502Z,27.87
2022-08-03T16:21:47.321Z,27.82
2022-08-03T16:24:25.202Z,27.86
2022-08-03T16:26:58.125Z,27.78
2022-08-03T16:29:32.917Z,27.65
2022-08-03T16:32:09.411Z,27.51
2022-08-03T16:34:40.635Z,27.46
2022-08-03T16:37:37.010Z,27.36
2022-08-03T16:40:01.231Z,27.39
2022-08-03T16:42:30.987Z,27.40
2022-08-03T16:45:03.395Z,27.37
2022-08-03T16:47:33.117Z,27.29
2022-08-03T16:50:07.203Z,27.26
2022-08-03T16:52:41.498Z,27.14
2022-08-03T16:55:42.746Z,27.11
2022-08-03T16:58:08.324Z,27.01
2022-08-03T17:00:46.277Z,26.91
2022-08-03T17:03:20.482Z,26.79
2022-08-03T17:05:54.124Z,26.69
2022-08-03T17:08:29.400Z,26.59
2022-08-03T17:10:59.975Z,26.57
2022-08-03T17:13:39.693Z,26.60
2022-08-03T17:16:15.276Z,26.63
2022-08-03T17:18:50.304Z,26.61
2022-08-03T17:21:25.697Z,26.59
2022-08-03T17:24:03.411Z,26.59
2022-08-03T17:26:34.351Z,26.62
2022-08-03T17:29:12.826Z,26.61
2022-08-03T17:31:48.674Z,26.62
2022-08-03T17:34:20.487Z,26.65
2022-08-03T17:37:07.027Z,26.64
2022-08-03T17:39:58.380Z,26.66
2022-08-03T17:42:39.205Z,26.68
2022-08-03T17:45:15.872Z,26.69
2022-08-03T17:47:57.185Z,26.72
2022-08-03T17:50:36.826Z,26.71
2022-08-03T17:53:23.593Z,26.71
2022-08-03T17:56:44.439Z,26.70
2022-08-03T17:59:10.513Z,26.69
2022-08-03T18:02:05.437Z,26.69
2022-08-03T18:04:55.441Z,26.69
2022-08-03T18:07:41.090Z,26.51
2022-08-03T18:10:15.175Z,26.40
2022-08-03T18:12:51.841Z,26.21
2022-08-03T18:15:27.247Z,26.00
2022-08-03T18:18:02.911Z,25.88
2022-08-03T18:20:45.698Z,25.66
2022-08-03T18:23:24.692Z,25.58
2022-08-03T18:26:12.011Z,25.57
2022-08-03T18:28:42.366Z,25.55
2022-08-03T18:31:33.186Z,25.58
2022-08-03T18:34:16.629Z,25.60
2022-08-03T18:36:52.591Z,25.57
2022-08-03T18:39:25.982Z,25.55
2022-08-03T18:41:55.763Z,25.56
2022-08-03T18:44:52.474Z,25.58
2022-08-03T18:47:50.616Z,25.58
2022-08-03T18:50:30.721Z,25.56
2022-08-03T18:53:15.402Z,25.53
2022-08-03T18:56:02.024Z,25.48
2022-08-03T18:58:52.406Z,25.43
2022-08-03T19:01:58.451Z,25.38
2022-08-03T19:04:28.210Z,25.35
2022-08-03T19:07:04.507Z,25.26
2022-08-03T19:09:51.860Z,25.17
2022-08-03T19:12:31.199Z,25.02
2022-08-03T19:15:17.364Z,24.89
2022-08-03T19:18:10.804Z,24.75
2022-08-03T19:20:41.528Z,24.67
2022-08-03T19:23:17.590Z,24.60
2022-08-03T19:25:49.958Z,24.57
2022-08-03T19:28:20.617Z,24.46
2022-08-03T19:31:06.518Z,24.39
2022-08-03T19:33:55.874Z,24.33
2022-08-03T19:36:29.242Z,24.29
2022-08-03T19:38:59.643Z,24.27
2022-08-03T19:41:41.644Z,24.23
2022-08-03T19:44:19.744Z,24.10
2022-08-03T19:46:55.839Z,24.08
2022-08-03T19:50:05.098Z,24.02
2022-08-03T19:52:24.547Z,23.99
2022-08-03T19:55:02.996Z,23.92
2022-08-03T19:57:38.379Z,23.90
2022-08-03T20:00:13.985Z,23.88
2022-08-03T20:02:44.169Z,23.89
2022-08-03T20:05:15.659Z,23.87
2022-08-03T20:07:48.139Z,23.87
2022-08-03T20:10:18.968Z,23.84
2022-08-03T20:12:51.972Z,23.84
2022-08-03T20:15:31.223Z,23.85
2022-08-03T20:18:02.616Z,23.78
2022-08-03T20:20:36.252Z,23.73
2022-08-03T20:23:13.079Z,23.71
2022-08-03T20:25:58.578Z,23.69
2022-08-03T20:28:34.988Z,23.60
2022-08-03T20:31:22.763Z,23.52
2022-08-03T20:33:56.332Z,23.50
2022-08-03T20:36:27.012Z,23.45
2022-08-03T20:38:58.073Z,23.43
2022-08-03T20:41:28.392Z,23.37
2022-08-03T20:44:04.613Z,23.31
2022-08-03T20:46:50.066Z,23.25
2022-08-03T20:49:25.588Z,23.25
2022-08-03T20:51:56.341Z,23.17
2022-08-03T20:54:31.341Z,23.15
2022-08-03T20:57:02.861Z,23.10
2022-08-03T20:59:50.675Z,23.09
2022-08-03T21:02:29.520Z,23.08
2022-08-03T21:05:03.621Z,23.04
2022-08-03T21:08:05.660Z,22.97
2022-08-03T21:10:37.995Z,22.88
2022-08-03T21:13:17.779Z,22.88
2022-08-03T21:16:05.392Z,22.85
2022-08-03T21:21:18.102Z,22.81
2022-08-03T21:23:52.744Z,22.81
2022-08-03T21:28:54.860Z,22.82
2022-08-03T21:31:27.860Z,22.76
2022-08-03T21:33:59.239Z,22.63
2022-08-03T21:36:31.042Z,22.59
2022-08-03T21:39:01.485Z,22.50
2022-08-03T21:41:34.585Z,22.50
2022-08-03T21:44:04.973Z,22.47
2022-08-03T21:46:42.027Z,22.44
2022-08-03T21:50:05.166Z,22.31
2022-08-03T21:52:07.142Z,22.31
2022-08-03T21:54:39.309Z,22.27
2022-08-03T21:57:20.762Z,22.26
2022-08-03T21:59:57.137Z,22.25
2022-08-03T22:02:32.536Z,22.22
2022-08-03T22:05:04.881Z,22.21
2022-08-03T22:07:35.861Z,22.19
2022-08-03T22:10:07.989Z,22.19
2022-08-03T22:12:38.426Z,22.19
2022-08-03T22:15:10.889Z,22.16
2022-08-03T22:17:54.638Z,22.14
2022-08-03T22:20:27.425Z,22.12
2022-08-03T22:22:59.054Z,22.08
2022-08-03T22:25:31.547Z,22.07
2022-08-03T22:28:04.526Z,22.05
2022-08-03T22:30:34.395Z,22.04
2022-08-03T22:33:11.265Z,22.02
2022-08-03T22:35:48.065Z,21.99
2022-08-03T22:38:18.811Z,21.98
2022-08-03T22:40:51.310Z,21.96
2022-08-03T22:43:25.105Z,21.95
2022-08-03T22:46:09.681Z,21.94
2022-08-03T22:48:44.876Z,21.90
2022-08-03T22:51:14.566Z,21.86
2022-08-03T22:53:44.738Z,21.84
2022-08-03T22:56:15.448Z,21.79
2022-08-03T22:58:45.200Z,21.81
2022-08-03T23:01:19.860Z,21.81
2022-08-03T23:04:02.195Z,21.80
2022-08-03T23:06:37.336Z,21.82
2022-08-03T23:09:09.769Z,21.80
2022-08-03T23:11:45.642Z,21.79
2022-08-03T23:14:17.885Z,21.78
2022-08-03T23:16:49.231Z,21.74
2022-08-03T23:19:25.083Z,21.70
2022-08-03T23:22:02.500Z,21.69
2022-08-03T23:24:36.331Z,21.68
2022-08-03T23:27:06.844Z,21.64
2022-08-03T23:29:38.335Z,21.60
2022-08-03T23:32:09.748Z,21.61
2022-08-03T23:34:55.895Z,21.60
2022-08-03T23:37:27.160Z,21.57
2022-08-03T23:39:59.810Z,21.56
2022-08-03T23:42:30.502Z,21.55
2022-08-03T23:45:05.421Z,21.53
2022-08-03T23:47:47.494Z,21.49
2022-08-03T23:50:21.443Z,21.50
2022-08-03T23:53:06.024Z,21.49
2022-08-03T23:55:55.156Z,21.46
2022-08-03T23:58:38.636Z,21.45
